sensor_id;sensor_type;location;lat;lon;timestamp;P1;durP1;ratioP1;P2;durP2;ratioP2
65835;SDS011;52595;51.608;7.216;2024-02-16T00:00:12;3.15;;;1.83;;
65835;SDS011;52595;51.608;7.216;2024-02-16T00:02:38;5.30;;;2.10;;
65835;SDS011;52595;51.608;7.216;2024-02-16T00:05:05;4.28;;;2.00;;
65835;SDS011;52595;51.608;7.216;2024-02-16T00:07:32;4.55;;;2.20;;
65835;SDS011;52595;51.608;7.216;2024-02-16T00:10:00;5.65;;;1.95;;
65835;SDS011;52595;51.608;7.216;2024-02-16T00:12:26;7.93;;;2.22;;
65835;SDS011;52595;51.608;7.216;2024-02-16T00:14:51;6.75;;;2.28;;
65835;SDS011;52595;51.608;7.216;2024-02-16T00:17:17;5.30;;;2.15;;
65835;SDS011;52595;51.608;7.216;2024-02-16T00:19:42;4.63;;;2.10;;
65835;SDS011;52595;51.608;7.216;2024-02-16T00:22:07;4.10;;;1.98;;
65835;SDS011;52595;51.608;7.216;2024-02-16T00:24:33;4.10;;;1.85;;
65835;SDS011;52595;51.608;7.216;2024-02-16T00:27:00;4.63;;;2.08;;
65835;SDS011;52595;51.608;7.216;2024-02-16T00:29:25;4.07;;;1.85;;
65835;SDS011;52595;51.608;7.216;2024-02-16T00:31:51;3.92;;;1.90;;
65835;SDS011;52595;51.608;7.216;2024-02-16T00:34:16;6.50;;;2.35;;
65835;SDS011;52595;51.608;7.216;2024-02-16T00:36:41;6.32;;;2.00;;
65835;SDS011;52595;51.608;7.216;2024-02-16T00:39:07;4.03;;;2.00;;
65835;SDS011;52595;51.608;7.216;2024-02-16T00:41:32;5.32;;;2.17;;
65835;SDS011;52595;51.608;7.216;2024-02-16T00:43:58;4.82;;;2.10;;
65835;SDS011;52595;51.608;7.216;2024-02-16T00:46:23;3.97;;;2.00;;
65835;SDS011;52595;51.608;7.216;2024-02-16T00:48:54;6.88;;;1.98;;
65835;SDS011;52595;51.608;7.216;2024-02-16T00:51:20;3.78;;;1.95;;
65835;SDS011;52595;51.608;7.216;2024-02-16T00:53:45;3.90;;;1.98;;
65835;SDS011;52595;51.608;7.216;2024-02-16T00:56:11;5.00;;;2.00;;
65835;SDS011;52595;51.608;7.216;2024-02-16T00:58:37;3.20;;;2.00;;
65835;SDS011;52595;51.608;7.216;2024-02-16T01:01:05;5.47;;;2.15;;
65835;SDS011;52595;51.608;7.216;2024-02-16T01:03:35;3.92;;;2.10;;
65835;SDS011;52595;51.608;7.216;2024-02-16T01:06:02;5.35;;;2.00;;
65835;SDS011;52595;51.608;7.216;2024-02-16T01:08:28;3.63;;;1.98;;
65835;SDS011;52595;51.608;7.216;2024-02-16T01:10:53;3.30;;;2.03;;
65835;SDS011;52595;51.608;7.216;2024-02-16T01:13:19;5.38;;;2.13;;
65835;SDS011;52595;51.608;7.216;2024-02-16T01:15:44;4.03;;;2.10;;
65835;SDS011;52595;51.608;7.216;2024-02-16T01:18:10;5.65;;;2.17;;
65835;SDS011;52595;51.608;7.216;2024-02-16T01:20:35;4.72;;;2.10;;
65835;SDS011;52595;51.608;7.216;2024-02-16T01:23:01;3.80;;;2.10;;
65835;SDS011;52595;51.608;7.216;2024-02-16T01:25:26;3.47;;;1.95;;
65835;SDS011;52595;51.608;7.216;2024-02-16T01:27:52;4.43;;;1.90;;
65835;SDS011;52595;51.608;7.216;2024-02-16T01:30:17;4.43;;;1.92;;
65835;SDS011;52595;51.608;7.216;2024-02-16T01:32:43;3.75;;;2.10;;
65835;SDS011;52595;51.608;7.216;2024-02-16T01:35:09;4.07;;;2.00;;
65835;SDS011;52595;51.608;7.216;2024-02-16T01:37:34;4.22;;;2.10;;
65835;SDS011;52595;51.608;7.216;2024-02-16T01:39:59;4.93;;;2.47;;
65835;SDS011;52595;51.608;7.216;2024-02-16T01:42:26;5.47;;;2.60;;
65835;SDS011;52595;51.608;7.216;2024-02-16T01:44:51;6.15;;;2.30;;
65835;SDS011;52595;51.608;7.216;2024-02-16T01:47:16;4.05;;;2.00;;
65835;SDS011;52595;51.608;7.216;2024-02-16T01:49:44;5.22;;;2.10;;
65835;SDS011;52595;51.608;7.216;2024-02-16T01:52:09;4.75;;;2.28;;
65835;SDS011;52595;51.608;7.216;2024-02-16T01:54:35;4.68;;;2.03;;
65835;SDS011;52595;51.608;7.216;2024-02-16T01:57:01;4.28;;;2.42;;
65835;SDS011;52595;51.608;7.216;2024-02-16T01:59:26;4.72;;;2.20;;
65835;SDS011;52595;51.608;7.216;2024-02-16T02:01:52;5.00;;;2.25;;
65835;SDS011;52595;51.608;7.216;2024-02-16T02:04:18;3.47;;;1.90;;
65835;SDS011;52595;51.608;7.216;2024-02-16T02:06:45;4.57;;;2.58;;
65835;SDS011;52595;51.608;7.216;2024-02-16T02:09:10;4.82;;;2.45;;
65835;SDS011;52595;51.608;7.216;2024-02-16T02:11:35;5.82;;;2.40;;
65835;SDS011;52595;51.608;7.216;2024-02-16T02:14:02;3.78;;;2.10;;
65835;SDS011;52595;51.608;7.216;2024-02-16T02:16:27;5.32;;;2.30;;
65835;SDS011;52595;51.608;7.216;2024-02-16T02:18:53;8.43;;;2.88;;
65835;SDS011;52595;51.608;7.216;2024-02-16T02:21:19;19.48;;;10.27;;
65835;SDS011;52595;51.608;7.216;2024-02-16T02:23:44;25.25;;;11.75;;
65835;SDS011;52595;51.608;7.216;2024-02-16T02:26:10;9.05;;;4.32;;
65835;SDS011;52595;51.608;7.216;2024-02-16T02:28:38;7.22;;;3.20;;
65835;SDS011;52595;51.608;7.216;2024-02-16T02:31:04;6.57;;;2.55;;
65835;SDS011;52595;51.608;7.216;2024-02-16T02:33:29;5.30;;;2.40;;
65835;SDS011;52595;51.608;7.216;2024-02-16T02:35:54;3.40;;;2.30;;
65835;SDS011;52595;51.608;7.216;2024-02-16T02:38:20;6.25;;;2.50;;
65835;SDS011;52595;51.608;7.216;2024-02-16T02:40:45;3.92;;;2.00;;
65835;SDS011;52595;51.608;7.216;2024-02-16T02:43:10;3.42;;;1.92;;
65835;SDS011;52595;51.608;7.216;2024-02-16T02:45:36;4.97;;;2.10;;
65835;SDS011;52595;51.608;7.216;2024-02-16T02:48:01;3.13;;;2.20;;
65835;SDS011;52595;51.608;7.216;2024-02-16T02:50:27;4.00;;;2.20;;
65835;SDS011;52595;51.608;7.216;2024-02-16T02:52:53;4.22;;;2.22;;
65835;SDS011;52595;51.608;7.216;2024-02-16T02:55:18;3.20;;;1.98;;
65835;SDS011;52595;51.608;7.216;2024-02-16T02:57:44;3.50;;;2.10;;
65835;SDS011;52595;51.608;7.216;2024-02-16T03:00:09;7.13;;;2.20;;
65835;SDS011;52595;51.608;7.216;2024-02-16T03:02:38;4.03;;;2.10;;
65835;SDS011;52595;51.608;7.216;2024-02-16T03:05:05;3.22;;;2.10;;
65835;SDS011;52595;51.608;7.216;2024-02-16T03:07:32;3.03;;;1.95;;
65835;SDS011;52595;51.608;7.216;2024-02-16T03:10:00;3.58;;;2.00;;
65835;SDS011;52595;51.608;7.216;2024-02-16T03:12:26;3.85;;;1.90;;
65835;SDS011;52595;51.608;7.216;2024-02-16T03:14:52;3.45;;;2.00;;
65835;SDS011;52595;51.608;7.216;2024-02-16T03:17:18;4.18;;;2.20;;
65835;SDS011;52595;51.608;7.216;2024-02-16T03:19:43;4.72;;;2.03;;
65835;SDS011;52595;51.608;7.216;2024-02-16T03:22:09;4.10;;;1.98;;
65835;SDS011;52595;51.608;7.216;2024-02-16T03:24:34;3.63;;;2.10;;
65835;SDS011;52595;51.608;7.216;2024-02-16T03:27:00;5.40;;;2.38;;
65835;SDS011;52595;51.608;7.216;2024-02-16T03:29:25;3.42;;;1.88;;
65835;SDS011;52595;51.608;7.216;2024-02-16T03:31:51;3.22;;;2.00;;
65835;SDS011;52595;51.608;7.216;2024-02-16T03:34:17;4.22;;;2.13;;
65835;SDS011;52595;51.608;7.216;2024-02-16T03:36:42;3.75;;;2.03;;
65835;SDS011;52595;51.608;7.216;2024-02-16T03:39:07;3.45;;;2.00;;
65835;SDS011;52595;51.608;7.216;2024-02-16T03:41:33;4.18;;;1.95;;
65835;SDS011;52595;51.608;7.216;2024-02-16T03:43:59;4.07;;;2.17;;
65835;SDS011;52595;51.608;7.216;2024-02-16T03:46:25;3.92;;;2.20;;
65835;SDS011;52595;51.608;7.216;2024-02-16T03:48:51;3.67;;;2.08;;
65835;SDS011;52595;51.608;7.216;2024-02-16T03:51:16;5.63;;;2.13;;
65835;SDS011;52595;51.608;7.216;2024-02-16T03:53:42;4.88;;;1.90;;
65835;SDS011;52595;51.608;7.216;2024-02-16T03:56:09;3.88;;;2.10;;
65835;SDS011;52595;51.608;7.216;2024-02-16T03:58:35;4.43;;;2.15;;
65835;SDS011;52595;51.608;7.216;2024-02-16T04:01:01;4.63;;;2.00;;
65835;SDS011;52595;51.608;7.216;2024-02-16T04:03:26;3.47;;;1.95;;
65835;SDS011;52595;51.608;7.216;2024-02-16T04:05:52;4.88;;;2.00;;
65835;SDS011;52595;51.608;7.216;2024-02-16T04:08:18;4.95;;;2.10;;
65835;SDS011;52595;51.608;7.216;2024-02-16T04:10:44;4.85;;;2.20;;
65835;SDS011;52595;51.608;7.216;2024-02-16T04:13:10;4.63;;;2.05;;
65835;SDS011;52595;51.608;7.216;2024-02-16T04:15:36;2.67;;;2.00;;
65835;SDS011;52595;51.608;7.216;2024-02-16T04:18:01;3.00;;;2.03;;
65835;SDS011;52595;51.608;7.216;2024-02-16T04:20:27;3.97;;;1.80;;
65835;SDS011;52595;51.608;7.216;2024-02-16T04:22:52;5.55;;;2.60;;
65835;SDS011;52595;51.608;7.216;2024-02-16T04:25:17;4.55;;;2.28;;
65835;SDS011;52595;51.608;7.216;2024-02-16T04:27:43;5.25;;;2.00;;
65835;SDS011;52595;51.608;7.216;2024-02-16T04:30:08;5.95;;;2.00;;
65835;SDS011;52595;51.608;7.216;2024-02-16T04:32:34;4.55;;;2.20;;
65835;SDS011;52595;51.608;7.216;2024-02-16T04:34:59;6.00;;;2.03;;
65835;SDS011;52595;51.608;7.216;2024-02-16T04:37:25;3.97;;;2.00;;
65835;SDS011;52595;51.608;7.216;2024-02-16T04:39:51;4.15;;;2.10;;
65835;SDS011;52595;51.608;7.216;2024-02-16T04:42:16;3.40;;;2.08;;
65835;SDS011;52595;51.608;7.216;2024-02-16T04:44:42;5.10;;;1.90;;
65835;SDS011;52595;51.608;7.216;2024-02-16T04:47:07;5.18;;;2.10;;
65835;SDS011;52595;51.608;7.216;2024-02-16T04:49:34;4.22;;;2.20;;
65835;SDS011;52595;51.608;7.216;2024-02-16T04:51:59;4.75;;;2.20;;
65835;SDS011;52595;51.608;7.216;2024-02-16T04:54:24;6.00;;;2.25;;
65835;SDS011;52595;51.608;7.216;2024-02-16T04:56:50;3.60;;;2.20;;
65835;SDS011;52595;51.608;7.216;2024-02-16T04:59:18;4.28;;;2.20;;
65835;SDS011;52595;51.608;7.216;2024-02-16T05:01:44;5.68;;;2.28;;
65835;SDS011;52595;51.608;7.216;2024-02-16T05:04:12;2.60;;;1.90;;
65835;SDS011;52595;51.608;7.216;2024-02-16T05:06:41;4.75;;;2.03;;
65835;SDS011;52595;51.608;7.216;2024-02-16T05:09:07;5.63;;;2.30;;
65835;SDS011;52595;51.608;7.216;2024-02-16T05:11:32;7.05;;;2.08;;
65835;SDS011;52595;51.608;7.216;2024-02-16T05:13:58;4.78;;;2.17;;
65835;SDS011;52595;51.608;7.216;2024-02-16T05:16:23;6.43;;;2.13;;
65835;SDS011;52595;51.608;7.216;2024-02-16T05:18:49;3.15;;;1.90;;
65835;SDS011;52595;51.608;7.216;2024-02-16T05:21:14;7.43;;;2.17;;
65835;SDS011;52595;51.608;7.216;2024-02-16T05:23:40;3.67;;;2.10;;
65835;SDS011;52595;51.608;7.216;2024-02-16T05:26:05;3.63;;;2.10;;
65835;SDS011;52595;51.608;7.216;2024-02-16T05:28:30;3.97;;;2.00;;
65835;SDS011;52595;51.608;7.216;2024-02-16T05:30:56;3.30;;;2.05;;
65835;SDS011;52595;51.608;7.216;2024-02-16T05:33:23;3.90;;;2.10;;
65835;SDS011;52595;51.608;7.216;2024-02-16T05:35:48;4.60;;;2.53;;
65835;SDS011;52595;51.608;7.216;2024-02-16T05:38:19;5.15;;;2.25;;
65835;SDS011;52595;51.608;7.216;2024-02-16T05:41:00;4.13;;;2.00;;
65835;SDS011;52595;51.608;7.216;2024-02-16T05:43:25;5.53;;;2.10;;
65835;SDS011;52595;51.608;7.216;2024-02-16T05:45:51;4.00;;;2.10;;
65835;SDS011;52595;51.608;7.216;2024-02-16T05:48:16;3.53;;;2.00;;
65835;SDS011;52595;51.608;7.216;2024-02-16T05:50:42;7.28;;;3.20;;
65835;SDS011;52595;51.608;7.216;2024-02-16T05:53:08;4.25;;;2.20;;
65835;SDS011;52595;51.608;7.216;2024-02-16T05:55:35;3.33;;;2.17;;
65835;SDS011;52595;51.608;7.216;2024-02-16T05:58:01;4.55;;;1.90;;
65835;SDS011;52595;51.608;7.216;2024-02-16T06:00:26;5.72;;;2.17;;
65835;SDS011;52595;51.608;7.216;2024-02-16T06:02:52;6.32;;;2.45;;
65835;SDS011;52595;51.608;7.216;2024-02-16T06:05:18;4.35;;;2.50;;
65835;SDS011;52595;51.608;7.216;2024-02-16T06:07:45;8.10;;;2.60;;
65835;SDS011;52595;51.608;7.216;2024-02-16T06:10:10;4.50;;;2.38;;
65835;SDS011;52595;51.608;7.216;2024-02-16T06:12:37;3.97;;;2.22;;
65835;SDS011;52595;51.608;7.216;2024-02-16T06:15:03;5.18;;;2.30;;
65835;SDS011;52595;51.608;7.216;2024-02-16T06:17:29;6.07;;;2.13;;
65835;SDS011;52595;51.608;7.216;2024-02-16T06:19:55;5.88;;;2.30;;
65835;SDS011;52595;51.608;7.216;2024-02-16T06:22:20;9.23;;;2.20;;
65835;SDS011;52595;51.608;7.216;2024-02-16T06:24:46;3.85;;;2.30;;
65835;SDS011;52595;51.608;7.216;2024-02-16T06:27:11;5.30;;;2.13;;
65835;SDS011;52595;51.608;7.216;2024-02-16T06:29:36;5.07;;;2.30;;
65835;SDS011;52595;51.608;7.216;2024-02-16T06:32:02;5.60;;;2.50;;
65835;SDS011;52595;51.608;7.216;2024-02-16T06:34:27;5.05;;;2.25;;
65835;SDS011;52595;51.608;7.216;2024-02-16T06:36:53;3.95;;;2.17;;
65835;SDS011;52595;51.608;7.216;2024-02-16T06:39:18;5.60;;;2.42;;
65835;SDS011;52595;51.608;7.216;2024-02-16T06:41:45;5.65;;;2.38;;
65835;SDS011;52595;51.608;7.216;2024-02-16T06:44:11;4.15;;;2.50;;
65835;SDS011;52595;51.608;7.216;2024-02-16T06:46:37;5.65;;;2.20;;
65835;SDS011;52595;51.608;7.216;2024-02-16T06:49:02;5.07;;;2.53;;
65835;SDS011;52595;51.608;7.216;2024-02-16T06:51:28;3.58;;;2.05;;
65835;SDS011;52595;51.608;7.216;2024-02-16T06:53:54;3.72;;;2.20;;
65835;SDS011;52595;51.608;7.216;2024-02-16T06:56:20;8.50;;;2.20;;
65835;SDS011;52595;51.608;7.216;2024-02-16T06:58:45;6.28;;;2.45;;
65835;SDS011;52595;51.608;7.216;2024-02-16T07:01:15;4.57;;;2.28;;
65835;SDS011;52595;51.608;7.216;2024-02-16T07:03:42;6.43;;;2.50;;
65835;SDS011;52595;51.608;7.216;2024-02-16T07:06:08;5.38;;;2.60;;
65835;SDS011;52595;51.608;7.216;2024-02-16T07:08:42;9.00;;;2.40;;
65835;SDS011;52595;51.608;7.216;2024-02-16T07:11:08;5.05;;;2.47;;
65835;SDS011;52595;51.608;7.216;2024-02-16T07:13:36;4.45;;;2.42;;
65835;SDS011;52595;51.608;7.216;2024-02-16T07:16:02;6.25;;;2.55;;
65835;SDS011;52595;51.608;7.216;2024-02-16T07:18:29;6.65;;;2.42;;
65835;SDS011;52595;51.608;7.216;2024-02-16T07:20:55;9.65;;;2.95;;
65835;SDS011;52595;51.608;7.216;2024-02-16T07:23:21;6.18;;;3.10;;
65835;SDS011;52595;51.608;7.216;2024-02-16T07:25:46;6.82;;;2.70;;
65835;SDS011;52595;51.608;7.216;2024-02-16T07:28:11;5.82;;;2.90;;
65835;SDS011;52595;51.608;7.216;2024-02-16T07:30:37;6.70;;;2.70;;
65835;SDS011;52595;51.608;7.216;2024-02-16T07:33:05;5.40;;;2.50;;
65835;SDS011;52595;51.608;7.216;2024-02-16T07:35:32;4.20;;;2.50;;
65835;SDS011;52595;51.608;7.216;2024-02-16T07:37:58;5.78;;;2.80;;
65835;SDS011;52595;51.608;7.216;2024-02-16T07:40:23;6.18;;;2.72;;
65835;SDS011;52595;51.608;7.216;2024-02-16T07:42:49;6.13;;;2.42;;
65835;SDS011;52595;51.608;7.216;2024-02-16T07:45:14;7.80;;;2.65;;
65835;SDS011;52595;51.608;7.216;2024-02-16T07:47:42;6.38;;;2.58;;
65835;SDS011;52595;51.608;7.216;2024-02-16T07:50:08;5.88;;;2.60;;
65835;SDS011;52595;51.608;7.216;2024-02-16T07:52:34;5.03;;;2.40;;
65835;SDS011;52595;51.608;7.216;2024-02-16T07:55:00;9.90;;;2.53;;
65835;SDS011;52595;51.608;7.216;2024-02-16T07:57:26;6.57;;;2.70;;
65835;SDS011;52595;51.608;7.216;2024-02-16T07:59:52;5.60;;;2.75;;
65835;SDS011;52595;51.608;7.216;2024-02-16T08:02:17;7.22;;;2.53;;
65835;SDS011;52595;51.608;7.216;2024-02-16T08:04:46;5.80;;;2.75;;
65835;SDS011;52595;51.608;7.216;2024-02-16T08:07:14;5.40;;;2.65;;
65835;SDS011;52595;51.608;7.216;2024-02-16T08:09:43;6.53;;;2.53;;
65835;SDS011;52595;51.608;7.216;2024-02-16T08:12:12;5.20;;;2.33;;
65835;SDS011;52595;51.608;7.216;2024-02-16T08:14:41;8.93;;;2.80;;
65835;SDS011;52595;51.608;7.216;2024-02-16T08:17:07;5.93;;;2.50;;
65835;SDS011;52595;51.608;7.216;2024-02-16T08:19:33;9.48;;;2.58;;
65835;SDS011;52595;51.608;7.216;2024-02-16T08:22:02;5.93;;;2.70;;
65835;SDS011;52595;51.608;7.216;2024-02-16T08:24:34;5.70;;;2.58;;
65835;SDS011;52595;51.608;7.216;2024-02-16T08:27:01;4.60;;;2.70;;
65835;SDS011;52595;51.608;7.216;2024-02-16T08:29:26;6.45;;;2.55;;
65835;SDS011;52595;51.608;7.216;2024-02-16T08:31:52;8.95;;;3.25;;
65835;SDS011;52595;51.608;7.216;2024-02-16T08:34:19;6.15;;;2.65;;
65835;SDS011;52595;51.608;7.216;2024-02-16T08:36:45;10.05;;;2.78;;
65835;SDS011;52595;51.608;7.216;2024-02-16T08:39:12;5.47;;;2.70;;
65835;SDS011;52595;51.608;7.216;2024-02-16T08:41:38;7.05;;;2.78;;
65835;SDS011;52595;51.608;7.216;2024-02-16T08:44:04;6.88;;;2.47;;
65835;SDS011;52595;51.608;7.216;2024-02-16T08:46:29;7.53;;;2.92;;
65835;SDS011;52595;51.608;7.216;2024-02-16T08:48:55;4.63;;;2.30;;
65835;SDS011;52595;51.608;7.216;2024-02-16T08:51:21;6.70;;;2.80;;
65835;SDS011;52595;51.608;7.216;2024-02-16T08:53:46;7.13;;;2.50;;
65835;SDS011;52595;51.608;7.216;2024-02-16T08:56:12;5.88;;;2.70;;
65835;SDS011;52595;51.608;7.216;2024-02-16T08:58:37;6.85;;;2.70;;
65835;SDS011;52595;51.608;7.216;2024-02-16T09:01:04;5.85;;;2.67;;
65835;SDS011;52595;51.608;7.216;2024-02-16T09:03:29;9.77;;;3.08;;
65835;SDS011;52595;51.608;7.216;2024-02-16T09:05:59;5.28;;;2.53;;
65835;SDS011;52595;51.608;7.216;2024-02-16T09:08:25;5.88;;;2.80;;
65835;SDS011;52595;51.608;7.216;2024-02-16T09:10:54;5.00;;;2.80;;
65835;SDS011;52595;51.608;7.216;2024-02-16T09:13:19;5.38;;;2.60;;
65835;SDS011;52595;51.608;7.216;2024-02-16T09:15:44;7.30;;;2.78;;
65835;SDS011;52595;51.608;7.216;2024-02-16T09:18:10;7.47;;;2.80;;
65835;SDS011;52595;51.608;7.216;2024-02-16T09:20:35;4.78;;;2.28;;
65835;SDS011;52595;51.608;7.216;2024-02-16T09:23:00;8.23;;;2.75;;
65835;SDS011;52595;51.608;7.216;2024-02-16T09:25:26;9.10;;;2.80;;
65835;SDS011;52595;51.608;7.216;2024-02-16T09:27:51;6.50;;;2.55;;
65835;SDS011;52595;51.608;7.216;2024-02-16T09:30:16;7.70;;;2.55;;
65835;SDS011;52595;51.608;7.216;2024-02-16T09:32:42;6.57;;;2.63;;
65835;SDS011;52595;51.608;7.216;2024-02-16T09:35:08;4.40;;;2.50;;
65835;SDS011;52595;51.608;7.216;2024-02-16T09:37:34;7.63;;;2.83;;
65835;SDS011;52595;51.608;7.216;2024-02-16T09:40:01;8.35;;;3.10;;
65835;SDS011;52595;51.608;7.216;2024-02-16T09:42:28;3.83;;;2.40;;
65835;SDS011;52595;51.608;7.216;2024-02-16T09:44:54;7.80;;;2.75;;
65835;SDS011;52595;51.608;7.216;2024-02-16T09:47:20;5.80;;;2.70;;
65835;SDS011;52595;51.608;7.216;2024-02-16T09:49:47;6.47;;;2.60;;
65835;SDS011;52595;51.608;7.216;2024-02-16T09:52:13;8.35;;;2.80;;
65835;SDS011;52595;51.608;7.216;2024-02-16T09:54:38;5.55;;;2.38;;
65835;SDS011;52595;51.608;7.216;2024-02-16T09:57:04;7.22;;;2.80;;
65835;SDS011;52595;51.608;7.216;2024-02-16T09:59:29;4.93;;;2.50;;
65835;SDS011;52595;51.608;7.216;2024-02-16T10:02:02;5.82;;;2.40;;
65835;SDS011;52595;51.608;7.216;2024-02-16T10:04:28;5.50;;;2.63;;
65835;SDS011;52595;51.608;7.216;2024-02-16T10:06:54;6.50;;;2.67;;
65835;SDS011;52595;51.608;7.216;2024-02-16T10:09:26;6.38;;;2.80;;
65835;SDS011;52595;51.608;7.216;2024-02-16T10:11:54;5.65;;;2.70;;
65835;SDS011;52595;51.608;7.216;2024-02-16T10:14:20;8.15;;;2.58;;
65835;SDS011;52595;51.608;7.216;2024-02-16T10:16:46;6.50;;;3.50;;
65835;SDS011;52595;51.608;7.216;2024-02-16T10:19:13;6.25;;;2.70;;
65835;SDS011;52595;51.608;7.216;2024-02-16T10:21:39;7.70;;;2.90;;
65835;SDS011;52595;51.608;7.216;2024-02-16T10:24:09;6.25;;;2.67;;
65835;SDS011;52595;51.608;7.216;2024-02-16T10:26:38;7.50;;;2.67;;
65835;SDS011;52595;51.608;7.216;2024-02-16T10:29:04;6.85;;;2.95;;
65835;SDS011;52595;51.608;7.216;2024-02-16T10:31:31;5.25;;;2.75;;
65835;SDS011;52595;51.608;7.216;2024-02-16T10:34:01;10.13;;;3.05;;
65835;SDS011;52595;51.608;7.216;2024-02-16T10:36:34;7.07;;;2.88;;
65835;SDS011;52595;51.608;7.216;2024-02-16T10:39:00;7.10;;;3.10;;
65835;SDS011;52595;51.608;7.216;2024-02-16T10:41:42;6.00;;;2.90;;
65835;SDS011;52595;51.608;7.216;2024-02-16T10:44:09;6.00;;;3.00;;
65835;SDS011;52595;51.608;7.216;2024-02-16T10:46:35;8.80;;;2.92;;
65835;SDS011;52595;51.608;7.216;2024-02-16T10:49:01;4.80;;;2.90;;
65835;SDS011;52595;51.608;7.216;2024-02-16T10:54:17;8.75;;;2.90;;
65835;SDS011;52595;51.608;7.216;2024-02-16T10:56:47;7.10;;;2.60;;
65835;SDS011;52595;51.608;7.216;2024-02-16T10:59:12;4.93;;;2.72;;
65835;SDS011;52595;51.608;7.216;2024-02-16T11:01:38;9.60;;;2.97;;
65835;SDS011;52595;51.608;7.216;2024-02-16T11:04:05;6.78;;;3.05;;
65835;SDS011;52595;51.608;7.216;2024-02-16T11:09:29;6.85;;;3.17;;
65835;SDS011;52595;51.608;7.216;2024-02-16T11:11:59;8.77;;;3.10;;
65835;SDS011;52595;51.608;7.216;2024-02-16T11:14:38;8.85;;;3.38;;
65835;SDS011;52595;51.608;7.216;2024-02-16T11:19:37;7.15;;;3.00;;
65835;SDS011;52595;51.608;7.216;2024-02-16T11:22:09;12.13;;;3.40;;
65835;SDS011;52595;51.608;7.216;2024-02-16T11:24:37;8.73;;;3.13;;
65835;SDS011;52595;51.608;7.216;2024-02-16T11:27:10;7.55;;;3.20;;
65835;SDS011;52595;51.608;7.216;2024-02-16T11:29:35;8.88;;;3.78;;
65835;SDS011;52595;51.608;7.216;2024-02-16T11:32:02;8.43;;;3.50;;
65835;SDS011;52595;51.608;7.216;2024-02-16T11:34:28;7.30;;;3.40;;
65835;SDS011;52595;51.608;7.216;2024-02-16T11:36:54;5.40;;;3.10;;
65835;SDS011;52595;51.608;7.216;2024-02-16T11:39:23;10.32;;;3.97;;
65835;SDS011;52595;51.608;7.216;2024-02-16T11:42:04;8.93;;;3.80;;
65835;SDS011;52595;51.608;7.216;2024-02-16T11:44:33;7.03;;;3.63;;
65835;SDS011;52595;51.608;7.216;2024-02-16T11:47:00;6.47;;;3.50;;
65835;SDS011;52595;51.608;7.216;2024-02-16T11:49:27;9.63;;;3.65;;
65835;SDS011;52595;51.608;7.216;2024-02-16T11:51:53;6.35;;;3.47;;
65835;SDS011;52595;51.608;7.216;2024-02-16T11:54:18;10.43;;;3.80;;
65835;SDS011;52595;51.608;7.216;2024-02-16T11:56:47;9.32;;;3.45;;
65835;SDS011;52595;51.608;7.216;2024-02-16T11:59:16;10.82;;;4.03;;
65835;SDS011;52595;51.608;7.216;2024-02-16T12:01:51;10.45;;;3.63;;
65835;SDS011;52595;51.608;7.216;2024-02-16T12:04:26;6.07;;;3.22;;
65835;SDS011;52595;51.608;7.216;2024-02-16T12:06:54;8.93;;;4.10;;
65835;SDS011;52595;51.608;7.216;2024-02-16T12:09:24;7.72;;;3.65;;
65835;SDS011;52595;51.608;7.216;2024-02-16T12:11:51;7.03;;;3.60;;
65835;SDS011;52595;51.608;7.216;2024-02-16T12:14:18;9.10;;;3.70;;
65835;SDS011;52595;51.608;7.216;2024-02-16T12:16:46;11.95;;;3.58;;
65835;SDS011;52595;51.608;7.216;2024-02-16T12:21:41;9.23;;;3.55;;
65835;SDS011;52595;51.608;7.216;2024-02-16T12:24:07;7.30;;;3.30;;
65835;SDS011;52595;51.608;7.216;2024-02-16T12:26:32;9.48;;;3.80;;
65835;SDS011;52595;51.608;7.216;2024-02-16T12:28:57;9.88;;;3.95;;
65835;SDS011;52595;51.608;7.216;2024-02-16T12:31:23;8.95;;;3.60;;
65835;SDS011;52595;51.608;7.216;2024-02-16T12:33:49;11.13;;;4.40;;
65835;SDS011;52595;51.608;7.216;2024-02-16T12:36:14;9.60;;;3.85;;
65835;SDS011;52595;51.608;7.216;2024-02-16T12:38:40;8.90;;;4.55;;
65835;SDS011;52595;51.608;7.216;2024-02-16T12:41:05;12.35;;;4.93;;
65835;SDS011;52595;51.608;7.216;2024-02-16T12:43:31;11.98;;;4.68;;
65835;SDS011;52595;51.608;7.216;2024-02-16T12:45:56;10.48;;;4.82;;
65835;SDS011;52595;51.608;7.216;2024-02-16T12:48:24;12.57;;;5.40;;
65835;SDS011;52595;51.608;7.216;2024-02-16T12:50:50;10.40;;;5.13;;
65835;SDS011;52595;51.608;7.216;2024-02-16T12:53:17;13.77;;;5.53;;
65835;SDS011;52595;51.608;7.216;2024-02-16T12:55:42;13.00;;;6.38;;
65835;SDS011;52595;51.608;7.216;2024-02-16T12:58:08;14.68;;;6.32;;
65835;SDS011;52595;51.608;7.216;2024-02-16T13:00:33;13.13;;;6.22;;
65835;SDS011;52595;51.608;7.216;2024-02-16T13:02:59;16.98;;;6.28;;
65835;SDS011;52595;51.608;7.216;2024-02-16T13:05:24;12.02;;;5.90;;
65835;SDS011;52595;51.608;7.216;2024-02-16T13:07:50;14.00;;;6.68;;
65835;SDS011;52595;51.608;7.216;2024-02-16T13:10:15;12.05;;;5.85;;
65835;SDS011;52595;51.608;7.216;2024-02-16T13:12:40;21.33;;;7.10;;
65835;SDS011;52595;51.608;7.216;2024-02-16T13:15:08;10.98;;;6.25;;
65835;SDS011;52595;51.608;7.216;2024-02-16T13:17:33;17.30;;;7.40;;
65835;SDS011;52595;51.608;7.216;2024-02-16T13:19:59;14.25;;;7.25;;
65835;SDS011;52595;51.608;7.216;2024-02-16T13:22:31;14.57;;;6.60;;
65835;SDS011;52595;51.608;7.216;2024-02-16T13:24:57;13.70;;;7.22;;
65835;SDS011;52595;51.608;7.216;2024-02-16T13:27:22;12.40;;;7.88;;
65835;SDS011;52595;51.608;7.216;2024-02-16T13:29:47;15.35;;;7.70;;
65835;SDS011;52595;51.608;7.216;2024-02-16T13:32:13;12.77;;;7.50;;
65835;SDS011;52595;51.608;7.216;2024-02-16T13:34:38;15.90;;;8.07;;
65835;SDS011;52595;51.608;7.216;2024-02-16T13:37:04;15.95;;;7.88;;
65835;SDS011;52595;51.608;7.216;2024-02-16T13:39:30;15.07;;;8.05;;
65835;SDS011;52595;51.608;7.216;2024-02-16T13:41:55;12.73;;;7.60;;
65835;SDS011;52595;51.608;7.216;2024-02-16T13:44:22;15.80;;;8.27;;
65835;SDS011;52595;51.608;7.216;2024-02-16T13:46:48;18.58;;;9.48;;
65835;SDS011;52595;51.608;7.216;2024-02-16T13:49:13;18.05;;;10.25;;
65835;SDS011;52595;51.608;7.216;2024-02-16T13:51:40;17.75;;;9.82;;
65835;SDS011;52595;51.608;7.216;2024-02-16T13:54:06;16.95;;;10.68;;
65835;SDS011;52595;51.608;7.216;2024-02-16T13:56:31;21.13;;;11.75;;
65835;SDS011;52595;51.608;7.216;2024-02-16T13:58:56;21.48;;;12.45;;
65835;SDS011;52595;51.608;7.216;2024-02-16T14:01:22;22.08;;;13.68;;
65835;SDS011;52595;51.608;7.216;2024-02-16T14:03:49;24.02;;;14.35;;
65835;SDS011;52595;51.608;7.216;2024-02-16T14:06:15;24.13;;;14.38;;
65835;SDS011;52595;51.608;7.216;2024-02-16T14:08:41;28.15;;;15.95;;
65835;SDS011;52595;51.608;7.216;2024-02-16T14:11:06;28.90;;;16.27;;
65835;SDS011;52595;51.608;7.216;2024-02-16T14:13:33;34.13;;;16.77;;
65835;SDS011;52595;51.608;7.216;2024-02-16T14:15:58;31.35;;;16.90;;
65835;SDS011;52595;51.608;7.216;2024-02-16T14:18:24;29.55;;;18.08;;
65835;SDS011;52595;51.608;7.216;2024-02-16T14:20:49;30.05;;;17.23;;
65835;SDS011;52595;51.608;7.216;2024-02-16T14:23:14;33.65;;;18.10;;
65835;SDS011;52595;51.608;7.216;2024-02-16T14:25:40;36.05;;;18.95;;
65835;SDS011;52595;51.608;7.216;2024-02-16T14:28:05;36.17;;;17.92;;
65835;SDS011;52595;51.608;7.216;2024-02-16T14:30:31;34.20;;;18.17;;
65835;SDS011;52595;51.608;7.216;2024-02-16T14:32:59;33.30;;;17.88;;
65835;SDS011;52595;51.608;7.216;2024-02-16T14:35:25;34.67;;;19.38;;
65835;SDS011;52595;51.608;7.216;2024-02-16T14:37:51;29.67;;;17.67;;
65835;SDS011;52595;51.608;7.216;2024-02-16T14:40:16;30.92;;;17.00;;
65835;SDS011;52595;51.608;7.216;2024-02-16T14:42:41;30.35;;;16.38;;
65835;SDS011;52595;51.608;7.216;2024-02-16T14:45:07;30.15;;;16.73;;
65835;SDS011;52595;51.608;7.216;2024-02-16T14:47:35;30.92;;;17.10;;